createdAt,value
2023-04-16T00:01:03.089Z,100.00
2023-04-16T00:03:31.633Z,100.00
2023-04-16T00:05:59.761Z,100.00
2023-04-16T00:08:27.677Z,100.00
2023-04-16T00:10:55.956Z,100.00
2023-04-16T00:13:24.020Z,100.00
2023-04-16T00:15:51.900Z,100.00
2023-04-16T00:18:21.399Z,100.00
2023-04-16T00:20:49.523Z,100.00
2023-04-16T00:23:17.701Z,100.00
2023-04-16T00:25:45.999Z,100.00
2023-04-16T00:28:13.917Z,100.00
2023-04-16T00:30:41.922Z,100.00
2023-04-16T00:33:10.261Z,100.00
2023-04-16T00:35:38.207Z,100.00
2023-04-16T00:38:06.316Z,100.00
2023-04-16T00:40:34.615Z,100.00
2023-04-16T00:43:02.576Z,100.00
2023-04-16T00:45:30.590Z,100.00
2023-04-16T00:48:00.563Z,100.00
2023-04-16T00:50:29.056Z,100.00
2023-04-16T00:52:57.237Z,100.00
2023-04-16T00:55:25.601Z,100.00
2023-04-16T00:57:54.069Z,100.00
2023-04-16T01:00:22.270Z,100.00
2023-04-16T01:02:50.736Z,100.00
2023-04-16T01:05:20.660Z,100.00
2023-04-16T01:07:48.679Z,100.00
2023-04-16T01:10:17.020Z,100.00
2023-04-16T01:12:45.235Z,100.00
2023-04-16T01:15:13.223Z,96.19
2023-04-16T01:17:42.204Z,98.51
2023-04-16T01:20:10.716Z,100.00
2023-04-16T01:22:38.924Z,98.68
2023-04-16T01:25:07.376Z,100.00
2023-04-16T01:27:35.714Z,100.00
2023-04-16T01:30:04.368Z,100.00
2023-04-16T01:32:34.025Z,99.64
2023-04-16T01:35:02.369Z,99.00
2023-04-16T01:37:31.205Z,97.49
2023-04-16T01:39:59.823Z,99.49
2023-04-16T01:42:28.442Z,100.00
2023-04-16T01:44:56.401Z,100.00
2023-04-16T01:47:24.818Z,100.00
2023-04-16T01:49:52.889Z,100.00
2023-04-16T01:52:21.359Z,99.89
2023-04-16T01:54:49.621Z,97.17
2023-04-16T01:57:17.534Z,100.00
2023-04-16T01:59:45.592Z,100.00
2023-04-16T02:02:16.525Z,100.00
2023-04-16T02:04:46.148Z,100.00
2023-04-16T02:07:14.105Z,100.00
2023-04-16T02:09:42.147Z,100.00
2023-04-16T02:12:12.013Z,100.00
2023-04-16T02:14:40.011Z,100.00
2023-04-16T02:17:07.999Z,100.00
2023-04-16T02:19:36.628Z,97.42
2023-04-16T02:22:05.170Z,94.44
2023-04-16T02:24:33.386Z,95.22
2023-04-16T02:27:04.097Z,100.00
2023-04-16T02:29:32.456Z,100.00
2023-04-16T02:32:01.361Z,100.00
2023-04-16T02:34:30.088Z,100.00
2023-04-16T02:36:58.624Z,100.00
2023-04-16T02:39:26.704Z,100.00
2023-04-16T02:41:55.158Z,100.00
2023-04-16T02:44:23.507Z,100.00
2023-04-16T02:46:51.435Z,100.00
2023-04-16T02:49:19.345Z,100.00
2023-04-16T02:51:49.205Z,100.00
2023-04-16T02:54:17.131Z,100.00
2023-04-16T02:56:45.111Z,96.44
2023-04-16T02:59:13.432Z,95.85
2023-04-16T03:01:41.734Z,100.00
2023-04-16T03:04:09.937Z,100.00
2023-04-16T03:06:38.216Z,100.00
2023-04-16T03:09:06.137Z,100.00
2023-04-16T03:11:34.034Z,100.00
2023-04-16T03:14:02.275Z,100.00
2023-04-16T03:16:30.144Z,100.00
2023-04-16T03:18:58.019Z,100.00
2023-04-16T03:21:27.832Z,100.00
2023-04-16T03:23:56.344Z,100.00
2023-04-16T03:26:24.374Z,100.00
2023-04-16T03:28:52.785Z,100.00
2023-04-16T03:31:21.847Z,100.00
2023-04-16T03:33:49.768Z,100.00
2023-04-16T03:36:18.194Z,100.00
2023-04-16T03:38:46.166Z,100.00
2023-04-16T03:41:14.779Z,100.00
2023-04-16T03:43:43.165Z,100.00
2023-04-16T03:46:11.560Z,100.00
2023-04-16T03:48:39.552Z,100.00
2023-04-16T03:51:08.451Z,100.00
2023-04-16T03:53:36.448Z,100.00
2023-04-16T03:56:04.683Z,100.00
2023-04-16T03:58:33.046Z,100.00
2023-04-16T04:01:00.951Z,100.00
2023-04-16T04:03:29.536Z,100.00
2023-04-16T04:05:57.818Z,100.00
2023-04-16T04:08:26.460Z,100.00
2023-04-16T04:10:54.975Z,100.00
2023-04-16T04:13:23.411Z,100.00
2023-04-16T04:15:51.659Z,100.00
2023-04-16T04:18:20.485Z,100.00
2023-04-16T04:20:48.440Z,100.00
2023-04-16T04:23:16.493Z,100.00
2023-04-16T04:25:45.631Z,100.00
2023-04-16T04:28:13.863Z,100.00
2023-04-16T04:30:42.343Z,100.00
2023-04-16T04:33:11.211Z,100.00
2023-04-16T04:35:39.160Z,100.00
2023-04-16T04:38:07.212Z,100.00
2023-04-16T04:40:35.859Z,100.00
2023-04-16T04:43:04.112Z,100.00
2023-04-16T04:45:32.297Z,100.00
2023-04-16T04:48:00.897Z,100.00
2023-04-16T04:50:28.860Z,94.79
2023-04-16T04:52:56.835Z,91.86
2023-04-16T04:55:25.160Z,91.97
2023-04-16T04:57:53.063Z,94.93
2023-04-16T05:00:21.441Z,95.05
2023-04-16T05:02:50.440Z,94.12
2023-04-16T05:05:18.526Z,95.92
2023-04-16T05:07:46.485Z,95.65
2023-04-16T05:10:14.913Z,95.98
2023-04-16T05:12:42.902Z,97.75
2023-04-16T05:15:11.191Z,97.72
2023-04-16T05:17:39.542Z,97.97
2023-04-16T05:20:09.283Z,98.79
2023-04-16T05:22:37.296Z,97.40
2023-04-16T05:25:05.929Z,98.12
2023-04-16T05:27:33.821Z,99.07
2023-04-16T05:30:01.814Z,100.00
2023-04-16T05:32:30.141Z,99.50
2023-04-16T05:34:58.110Z,99.52
2023-04-16T05:37:26.114Z,97.20
2023-04-16T05:39:54.449Z,96.48
2023-04-16T05:42:22.334Z,97.17
2023-04-16T05:44:51.284Z,98.73
2023-04-16T05:47:19.584Z,97.74
2023-04-16T05:49:47.492Z,97.30
2023-04-16T05:52:15.603Z,98.48
2023-04-16T05:54:43.813Z,97.86
2023-04-16T05:57:12.048Z,98.63
2023-04-16T05:59:39.996Z,99.32
2023-04-16T06:02:08.322Z,98.91
2023-04-16T06:04:37.479Z,99.10
2023-04-16T06:07:05.582Z,98.68
2023-04-16T06:09:33.504Z,96.31
2023-04-16T06:12:02.292Z,96.21
2023-04-16T06:14:30.193Z,96.99
2023-04-16T06:16:58.152Z,96.54
2023-04-16T06:19:26.390Z,96.48
2023-04-16T06:21:54.433Z,95.62
2023-04-16T06:24:22.515Z,94.94
2023-04-16T06:26:50.780Z,93.27
2023-04-16T06:29:18.691Z,92.65
2023-04-16T06:31:46.875Z,94.57
2023-04-16T06:34:15.144Z,92.86
2023-04-16T06:36:43.128Z,93.95
2023-04-16T06:39:11.369Z,92.36
2023-04-16T06:41:39.899Z,91.03
2023-04-16T06:44:07.959Z,89.71
2023-04-16T06:46:35.979Z,85.38
2023-04-16T06:49:04.369Z,85.17
2023-04-16T06:51:32.355Z,86.61
2023-04-16T06:54:00.391Z,86.72
2023-04-16T06:56:28.704Z,88.18
2023-04-16T06:58:58.010Z,87.29
2023-04-16T07:01:26.173Z,86.93
2023-04-16T07:03:55.007Z,82.65
2023-04-16T07:06:23.203Z,82.17
2023-04-16T07:08:51.072Z,80.23
2023-04-16T07:11:19.597Z,82.81
2023-04-16T07:13:47.548Z,80.77
2023-04-16T07:16:15.452Z,83.34
2023-04-16T07:18:43.729Z,79.62
2023-04-16T07:21:11.652Z,77.36
2023-04-16T07:23:39.598Z,77.50
2023-04-16T07:26:07.920Z,79.71
2023-04-16T07:28:36.018Z,77.95
2023-04-16T07:31:04.003Z,71.64
2023-04-16T07:33:32.302Z,70.13
2023-04-16T07:36:00.198Z,71.62
2023-04-16T07:38:28.093Z,71.26
2023-04-16T07:40:57.033Z,69.01
2023-04-16T07:43:24.943Z,70.23
2023-04-16T07:45:52.932Z,68.95
2023-04-16T07:48:22.261Z,65.08
2023-04-16T07:50:50.537Z,65.54
2023-04-16T07:53:18.436Z,70.00
2023-04-16T07:55:46.779Z,67.82
2023-04-16T07:58:14.707Z,65.72
2023-04-16T08:00:42.576Z,66.38
2023-04-16T08:03:11.064Z,65.65
2023-04-16T08:05:39.252Z,66.75
2023-04-16T08:08:07.181Z,68.29
2023-04-16T08:10:35.562Z,69.33
2023-04-16T08:13:03.534Z,67.05
2023-04-16T08:15:31.583Z,64.87
2023-04-16T08:18:00.047Z,64.24
2023-04-16T08:20:28.025Z,64.48
2023-04-16T08:22:56.086Z,67.91
2023-04-16T08:25:25.021Z,66.77
2023-04-16T08:27:52.979Z,62.06
2023-04-16T08:30:22.225Z,63.46
2023-04-16T08:32:50.680Z,66.55
2023-04-16T08:35:18.803Z,66.63
2023-04-16T08:37:46.756Z,65.60
2023-04-16T08:40:15.399Z,63.78
2023-04-16T08:42:49.646Z,68.44
2023-04-16T08:45:18.512Z,63.11
2023-04-16T08:47:48.295Z,65.98
2023-04-16T08:50:17.450Z,65.57
2023-04-16T08:52:53.058Z,62.87
2023-04-16T08:55:32.592Z,67.10
2023-04-16T08:58:01.825Z,65.45
2023-04-16T09:00:32.186Z,64.65
2023-04-16T09:03:00.795Z,64.25
2023-04-16T09:05:29.760Z,65.73
2023-04-16T09:07:57.746Z,65.31
2023-04-16T09:10:27.271Z,62.86
2023-04-16T09:12:56.417Z,60.12
2023-04-16T09:15:26.006Z,61.95
2023-04-16T09:17:54.660Z,59.63
2023-04-16T09:20:22.826Z,60.66
2023-04-16T09:22:50.779Z,62.89
2023-04-16T09:25:21.051Z,60.40
2023-04-16T09:27:52.386Z,61.43
2023-04-16T09:30:24.702Z,61.67
2023-04-16T09:32:53.829Z,56.09
2023-04-16T09:35:22.232Z,57.62
2023-04-16T09:37:57.587Z,57.41
2023-04-16T09:40:27.745Z,52.38
2023-04-16T09:43:01.023Z,54.42
2023-04-16T09:45:32.967Z,51.33
2023-04-16T09:48:06.315Z,46.83
2023-04-16T09:50:34.639Z,46.33
2023-04-16T09:53:03.866Z,49.22
2023-04-16T09:55:33.059Z,48.00
2023-04-16T09:58:02.064Z,48.23
2023-04-16T10:00:31.815Z,51.35
2023-04-16T10:03:07.375Z,52.92
2023-04-16T10:05:35.858Z,48.52
2023-04-16T10:08:11.905Z,46.69
2023-04-16T10:10:40.765Z,50.02
2023-04-16T10:13:09.357Z,53.24
2023-04-16T10:15:37.308Z,49.15
2023-04-16T10:18:05.718Z,48.37
2023-04-16T10:20:33.984Z,53.86
2023-04-16T10:23:02.453Z,55.82
2023-04-16T10:25:31.440Z,55.40
2023-04-16T10:28:00.573Z,54.04
2023-04-16T10:30:28.610Z,57.29
2023-04-16T10:33:00.257Z,56.46
2023-04-16T10:35:29.124Z,55.88
2023-04-16T10:37:58.147Z,54.79
2023-04-16T10:40:27.590Z,54.66
2023-04-16T10:42:59.849Z,50.80
2023-04-16T10:45:32.923Z,48.70
2023-04-16T10:48:06.389Z,49.27
2023-04-16T10:50:36.282Z,50.30
2023-04-16T10:53:23.968Z,49.60
2023-04-16T10:55:58.691Z,53.28
2023-04-16T10:58:28.252Z,54.15
2023-04-16T11:00:56.334Z,52.12
2023-04-16T11:03:24.338Z,53.45
2023-04-16T11:05:52.960Z,50.53
2023-04-16T11:08:21.379Z,49.44
2023-04-16T11:10:49.538Z,47.86
2023-04-16T11:13:18.905Z,50.53
2023-04-16T11:15:48.726Z,44.42
2023-04-16T11:18:20.094Z,47.14
2023-04-16T11:20:48.398Z,48.95
2023-04-16T11:23:16.442Z,48.23
2023-04-16T11:25:45.261Z,44.97
2023-04-16T11:28:13.600Z,45.90
2023-04-16T11:30:41.928Z,47.09
2023-04-16T11:33:11.697Z,40.74
2023-04-16T11:35:40.363Z,41.23
2023-04-16T11:38:08.310Z,40.19
2023-04-16T11:40:36.609Z,39.02
2023-04-16T11:43:15.919Z,40.85
2023-04-16T11:45:57.664Z,44.12
2023-04-16T11:48:26.233Z,41.59
2023-04-16T11:51:00.480Z,41.67
2023-04-16T11:53:28.829Z,41.70
2023-04-16T11:55:57.460Z,40.73
2023-04-16T11:58:25.480Z,41.78
2023-04-16T12:00:57.113Z,45.93
2023-04-16T12:03:47.142Z,48.20
2023-04-16T12:06:15.695Z,43.42
2023-04-16T12:08:43.993Z,40.69
2023-04-16T12:11:11.910Z,39.61
2023-04-16T12:13:40.405Z,44.94
2023-04-16T12:16:21.224Z,42.28
2023-04-16T12:19:03.233Z,42.02
2023-04-16T12:21:46.028Z,42.79
2023-04-16T12:24:16.386Z,45.55
2023-04-16T12:26:47.526Z,43.15
2023-04-16T12:29:30.444Z,46.67
2023-04-16T12:31:58.775Z,44.19
2023-04-16T12:34:28.949Z,42.36
2023-04-16T12:37:15.096Z,41.69
2023-04-16T12:39:43.561Z,43.89
2023-04-16T12:42:13.040Z,42.66
2023-04-16T12:44:41.396Z,47.20
2023-04-16T12:47:09.304Z,46.70
2023-04-16T12:49:37.630Z,44.46
2023-04-16T12:52:06.650Z,44.69
2023-04-16T12:54:34.693Z,47.56
2023-04-16T12:57:02.631Z,46.27
2023-04-16T12:59:30.912Z,47.08
2023-04-16T13:01:58.920Z,45.00
2023-04-16T13:04:27.103Z,48.37
2023-04-16T13:06:55.754Z,49.29
2023-04-16T13:09:23.776Z,46.79
2023-04-16T13:11:51.794Z,45.56
2023-04-16T13:14:21.168Z,47.81
2023-04-16T13:16:49.235Z,48.79
2023-04-16T13:19:19.382Z,46.57
2023-04-16T13:21:47.763Z,46.95
2023-04-16T13:24:15.986Z,43.58
2023-04-16T13:26:43.939Z,48.02
2023-04-16T13:29:12.497Z,45.28
2023-04-16T13:31:41.086Z,45.34
2023-04-16T13:34:08.980Z,46.67
2023-04-16T13:36:37.414Z,44.27
2023-04-16T13:39:10.985Z,40.29
2023-04-16T13:41:39.815Z,44.73
2023-04-16T13:44:07.898Z,44.03
2023-04-16T13:46:35.917Z,45.99
2023-04-16T13:49:04.208Z,43.26
2023-04-16T13:51:32.365Z,43.12
2023-04-16T13:54:00.276Z,44.27
2023-04-16T13:56:28.823Z,44.73
2023-04-16T13:58:56.741Z,43.68
2023-04-16T14:01:24.805Z,39.72
2023-04-16T14:03:53.205Z,41.58
2023-04-16T14:06:21.584Z,39.15
2023-04-16T14:08:49.686Z,44.69
2023-04-16T14:11:17.966Z,44.67
2023-04-16T14:13:46.037Z,41.42
2023-04-16T14:16:14.353Z,45.93
2023-04-16T14:18:42.631Z,45.85
2023-04-16T14:21:10.673Z,48.58
2023-04-16T14:23:38.580Z,50.02
2023-04-16T14:26:06.853Z,51.37
2023-04-16T14:28:35.940Z,49.26
2023-04-16T14:31:03.898Z,51.19
2023-04-16T14:33:32.641Z,49.39
2023-04-16T14:36:02.773Z,49.76
2023-04-16T14:38:31.536Z,49.01
2023-04-16T14:41:00.708Z,49.15
2023-04-16T14:43:28.898Z,49.17
2023-04-16T14:45:58.892Z,49.80
2023-04-16T14:48:27.364Z,51.07
2023-04-16T14:50:55.528Z,49.68
2023-04-16T14:53:24.531Z,50.15
2023-04-16T14:55:53.730Z,51.58
2023-04-16T14:58:22.126Z,50.83
2023-04-16T15:00:50.156Z,49.53
2023-04-16T15:03:18.634Z,50.17
2023-04-16T15:05:51.064Z,49.99
2023-04-16T15:08:19.355Z,48.42
2023-04-16T15:10:47.359Z,49.54
2023-04-16T15:13:15.792Z,50.62
2023-04-16T15:15:44.320Z,47.43
2023-04-16T15:18:12.330Z,46.79
2023-04-16T15:20:40.265Z,47.68
2023-04-16T15:23:08.644Z,46.30
2023-04-16T15:25:36.607Z,47.52
2023-04-16T15:28:04.835Z,45.27
2023-04-16T15:30:33.168Z,46.59
2023-04-16T15:33:01.243Z,47.16
2023-04-16T15:35:29.140Z,48.32
2023-04-16T15:37:57.506Z,45.98
2023-04-16T15:40:25.863Z,46.34
2023-04-16T15:42:56.180Z,46.01
2023-04-16T15:45:24.545Z,45.70
2023-04-16T15:47:52.463Z,44.92
2023-04-16T15:50:20.669Z,44.57
2023-04-16T15:52:49.203Z,44.28
2023-04-16T15:55:17.861Z,45.13
2023-04-16T15:57:45.800Z,44.77
2023-04-16T16:00:16.376Z,43.96
2023-04-16T16:02:47.244Z,44.68
2023-04-16T16:05:16.188Z,47.10
2023-04-16T16:07:44.950Z,47.39
2023-04-16T16:10:13.470Z,46.45
2023-04-16T16:12:41.708Z,48.44
2023-04-16T16:15:11.386Z,46.56
2023-04-16T16:17:39.575Z,49.82
2023-04-16T16:20:10.759Z,49.88
2023-04-16T16:22:39.509Z,48.98
2023-04-16T16:25:07.790Z,50.55
2023-04-16T16:27:36.621Z,51.95
2023-04-16T16:30:07.430Z,52.01
2023-04-16T16:32:35.552Z,51.97
2023-04-16T16:35:03.630Z,52.47
2023-04-16T16:37:31.975Z,52.64
2023-04-16T16:39:59.943Z,53.75
2023-04-16T16:42:27.916Z,53.50
2023-04-16T16:44:57.569Z,53.55
2023-04-16T16:47:25.669Z,54.00
2023-04-16T16:49:54.872Z,55.27
2023-04-16T16:52:24.386Z,54.71
2023-04-16T16:54:56.926Z,56.00
2023-04-16T16:57:25.859Z,56.84
2023-04-16T16:59:54.794Z,58.39
2023-04-16T17:02:23.312Z,57.60
2023-04-16T17:04:52.966Z,58.54
2023-04-16T17:07:21.169Z,59.39
2023-04-16T17:09:49.018Z,59.49
2023-04-16T17:12:17.315Z,58.26
2023-04-16T17:14:46.129Z,57.73
2023-04-16T17:17:14.000Z,58.45
2023-04-16T17:19:42.308Z,60.57
2023-04-16T17:22:10.943Z,61.47
2023-04-16T17:24:39.335Z,61.85
2023-04-16T17:27:07.627Z,63.24
2023-04-16T17:29:35.695Z,63.97
2023-04-16T17:32:04.118Z,64.15
2023-04-16T17:34:32.405Z,64.09
2023-04-16T17:37:00.332Z,65.24
2023-04-16T17:39:28.210Z,66.35
2023-04-16T17:41:58.713Z,67.35
2023-04-16T17:44:28.155Z,66.71
2023-04-16T17:46:57.105Z,69.63
2023-04-16T17:49:25.055Z,69.48
2023-04-16T17:51:54.095Z,67.85
2023-04-16T17:54:22.421Z,68.54
2023-04-16T17:56:50.321Z,70.16
2023-04-16T17:59:18.320Z,69.43
2023-04-16T18:01:46.728Z,71.44
2023-04-16T18:04:15.528Z,71.99
2023-04-16T18:06:44.132Z,70.80
2023-04-16T18:09:12.331Z,70.14
2023-04-16T18:11:40.509Z,70.20
2023-04-16T18:14:10.217Z,71.16
2023-04-16T18:16:38.265Z,71.57
2023-04-16T18:19:06.719Z,71.39
2023-04-16T18:21:35.694Z,71.20
2023-04-16T18:24:03.737Z,72.94
2023-04-16T18:26:35.674Z,72.67
2023-04-16T18:29:04.327Z,71.01
2023-04-16T18:31:32.687Z,71.73
2023-04-16T18:34:00.687Z,71.19
2023-04-16T18:36:28.773Z,72.07
2023-04-16T18:39:02.056Z,72.67
2023-04-16T18:41:31.512Z,74.44
2023-04-16T18:43:59.861Z,74.64
2023-04-16T18:46:27.931Z,75.40
2023-04-16T18:48:56.062Z,75.15
2023-04-16T18:51:24.404Z,76.00
2023-04-16T18:53:52.394Z,76.98
2023-04-16T18:56:20.417Z,75.12
2023-04-16T18:58:49.491Z,72.98
2023-04-16T19:01:18.103Z,71.38
2023-04-16T19:03:46.397Z,70.02
2023-04-16T19:06:14.881Z,71.24
2023-04-16T19:08:42.789Z,71.59
2023-04-16T19:11:10.829Z,70.87
2023-04-16T19:13:39.482Z,69.09
2023-04-16T19:16:11.639Z,70.31
2023-04-16T19:18:40.273Z,69.74
2023-04-16T19:21:10.220Z,70.43
2023-04-16T19:23:38.163Z,71.52
2023-04-16T19:26:06.512Z,72.80
2023-04-16T19:28:34.487Z,72.29
2023-04-16T19:31:02.605Z,70.15
2023-04-16T19:33:31.529Z,69.65
2023-04-16T19:36:00.503Z,70.81
2023-04-16T19:38:28.954Z,72.53
2023-04-16T19:40:57.240Z,72.24
2023-04-16T19:43:25.152Z,74.54
2023-04-16T19:45:54.499Z,72.68
2023-04-16T19:48:22.829Z,71.64
2023-04-16T19:50:50.962Z,71.70
2023-04-16T19:53:18.969Z,72.48
2023-04-16T19:55:47.249Z,72.50
2023-04-16T19:58:15.283Z,73.04
2023-04-16T20:00:43.709Z,75.14
2023-04-16T20:03:12.163Z,72.66
2023-04-16T20:05:40.109Z,70.16
2023-04-16T20:08:08.021Z,74.02
2023-04-16T20:10:36.288Z,72.58
2023-04-16T20:13:05.187Z,70.18
2023-04-16T20:15:33.075Z,72.70
2023-04-16T20:18:01.388Z,71.85
2023-04-16T20:20:29.426Z,71.33
2023-04-16T20:22:57.395Z,71.99
2023-04-16T20:25:26.420Z,72.31
2023-04-16T20:27:54.300Z,72.84
2023-04-16T20:30:22.883Z,71.92
2023-04-16T20:32:51.121Z,74.37
2023-04-16T20:35:19.167Z,73.06
2023-04-16T20:37:47.107Z,71.76
2023-04-16T20:40:16.639Z,71.24
2023-04-16T20:42:46.543Z,71.52
2023-04-16T20:45:14.552Z,71.46
2023-04-16T20:47:43.698Z,70.59
2023-04-16T20:50:12.291Z,70.73
2023-04-16T20:52:40.355Z,70.67
2023-04-16T20:55:09.109Z,69.78
2023-04-16T20:57:37.052Z,72.15
2023-04-16T21:00:09.056Z,69.87
2023-04-16T21:02:37.575Z,70.65
2023-04-16T21:05:09.204Z,70.81
2023-04-16T21:07:37.507Z,71.08
2023-04-16T21:10:06.019Z,70.38
2023-04-16T21:12:33.958Z,70.72
2023-04-16T21:15:02.577Z,71.25
2023-04-16T21:17:30.753Z,69.62
2023-04-16T21:19:58.756Z,70.44
2023-04-16T21:22:27.023Z,70.36
2023-04-16T21:24:55.050Z,68.87
2023-04-16T21:27:22.948Z,69.13
2023-04-16T21:29:52.063Z,68.78
2023-04-16T21:32:20.077Z,68.39
2023-04-16T21:34:48.074Z,68.23
2023-04-16T21:37:16.324Z,70.00
2023-04-16T21:39:44.307Z,71.25
2023-04-16T21:42:12.330Z,70.84
2023-04-16T21:44:40.731Z,68.67
2023-04-16T21:47:08.714Z,67.49
2023-04-16T21:49:36.620Z,69.85
2023-04-16T21:52:05.170Z,66.68
2023-04-16T21:54:33.222Z,67.92
2023-04-16T21:57:01.984Z,68.15
2023-04-16T21:59:30.294Z,68.95
2023-04-16T22:01:58.340Z,68.81
2023-04-16T22:04:37.192Z,65.73
2023-04-16T22:07:09.116Z,67.01
2023-04-16T22:09:38.093Z,68.76
2023-04-16T22:12:12.232Z,67.82
2023-04-16T22:14:46.153Z,69.23
2023-04-16T22:17:24.045Z,67.64
2023-04-16T22:19:53.607Z,67.94
2023-04-16T22:22:22.036Z,69.49
2023-04-16T22:24:49.998Z,70.37
2023-04-16T22:27:18.883Z,69.00
2023-04-16T22:29:46.833Z,69.44
2023-04-16T22:32:14.773Z,69.06
2023-04-16T22:34:43.063Z,67.64
2023-04-16T22:37:11.037Z,69.54
2023-04-16T22:39:38.939Z,68.58
2023-04-16T22:42:07.556Z,68.48
2023-04-16T22:44:36.979Z,66.66
2023-04-16T22:47:04.961Z,68.77
2023-04-16T22:49:33.377Z,67.29
2023-04-16T22:52:01.470Z,66.94
2023-04-16T22:54:33.031Z,67.66
2023-04-16T22:57:01.453Z,65.69
2023-04-16T22:59:29.325Z,66.29
2023-04-16T23:01:57.505Z,67.93
2023-04-16T23:04:26.005Z,68.34
2023-04-16T23:06:53.986Z,68.61
2023-04-16T23:09:22.725Z,68.53
2023-04-16T23:11:51.109Z,69.72
2023-04-16T23:14:19.697Z,69.60
2023-04-16T23:16:47.618Z,69.61
2023-04-16T23:19:15.994Z,70.00
2023-04-16T23:21:43.989Z,69.34
2023-04-16T23:24:11.969Z,70.15
2023-04-16T23:26:40.431Z,69.92
2023-04-16T23:29:08.386Z,71.76
2023-04-16T23:31:36.594Z,70.95
2023-04-16T23:34:04.927Z,69.36
2023-04-16T23:36:32.917Z,70.83
2023-04-16T23:39:00.987Z,70.67
2023-04-16T23:41:29.210Z,70.73
2023-04-16T23:43:57.347Z,70.80
2023-04-16T23:46:25.490Z,69.63
2023-04-16T23:48:55.450Z,70.29
2023-04-16T23:51:23.437Z,70.00
2023-04-16T23:53:51.330Z,70.51
2023-04-16T23:56:19.618Z,71.75
2023-04-16T23:58:47.620Z,70.83
